createdAt,value
2023-11-13T00:02:46.034Z,15.19
2023-11-13T00:07:50.016Z,15.22
2023-11-13T00:12:53.081Z,15.20
2023-11-13T00:18:03.554Z,15.20
2023-11-13T00:23:12.321Z,15.17
2023-11-13T00:28:15.366Z,15.23
2023-11-13T00:33:19.583Z,15.21
2023-11-13T00:38:23.150Z,15.24
2023-11-13T00:43:26.693Z,15.26
2023-11-13T00:48:33.772Z,15.25
2023-11-13T00:53:40.772Z,15.26
2023-11-13T00:58:47.948Z,15.28
2023-11-13T01:03:52.217Z,15.29
2023-11-13T01:08:56.946Z,15.28
2023-11-13T01:14:00.513Z,15.29
2023-11-13T01:19:03.438Z,15.30
2023-11-13T01:24:07.166Z,15.31
2023-11-13T01:29:10.001Z,15.31
2023-11-13T01:34:14.476Z,15.29
2023-11-13T01:39:17.756Z,15.32
2023-11-13T01:44:26.751Z,15.32
2023-11-13T01:49:30.252Z,15.31
2023-11-13T01:54:34.754Z,15.35
2023-11-13T01:59:40.723Z,15.34
2023-11-13T02:04:47.158Z,15.28
2023-11-13T02:09:51.619Z,15.30
2023-11-13T02:14:55.515Z,15.33
2023-11-13T02:20:01.593Z,15.33
2023-11-13T02:25:05.487Z,15.38
2023-11-13T02:30:08.822Z,15.40
2023-11-13T02:35:11.668Z,15.40
2023-11-13T02:40:15.331Z,15.41
2023-11-13T02:45:18.262Z,15.40
2023-11-13T02:50:22.479Z,15.43
2023-11-13T02:55:25.726Z,15.39
2023-11-13T03:00:28.722Z,15.39
2023-11-13T03:05:33.106Z,15.41
2023-11-13T03:10:38.040Z,15.41
2023-11-13T03:15:41.477Z,15.40
2023-11-13T03:20:48.663Z,15.38
2023-11-13T03:25:53.196Z,15.40
2023-11-13T03:30:59.798Z,15.39
2023-11-13T03:36:03.159Z,15.35
2023-11-13T03:41:05.753Z,15.39
2023-11-13T03:46:08.733Z,15.37
2023-11-13T03:51:12.212Z,15.35
2023-11-13T03:56:15.800Z,15.36
2023-11-13T04:01:20.745Z,15.32
2023-11-13T04:06:23.538Z,15.32
2023-11-13T04:11:28.021Z,15.31
2023-11-13T04:16:33.255Z,15.29
2023-11-13T04:21:36.344Z,15.30
2023-11-13T04:26:45.394Z,15.27
2023-11-13T04:31:50.306Z,15.24
2023-11-13T04:36:55.111Z,15.23
2023-11-13T04:42:06.394Z,15.25
2023-11-13T04:47:14.300Z,15.25
2023-11-13T04:52:17.431Z,15.26
2023-11-13T04:57:24.198Z,15.24
2023-11-13T05:02:27.115Z,15.18
2023-11-13T05:07:33.895Z,15.15
2023-11-13T05:12:38.030Z,15.15
2023-11-13T05:17:42.135Z,15.11
2023-11-13T05:22:45.585Z,15.13
2023-11-13T05:27:48.482Z,15.13
2023-11-13T05:32:51.105Z,15.14
2023-11-13T05:37:58.041Z,15.10
2023-11-13T05:43:01.145Z,15.10
2023-11-13T05:48:04.611Z,15.02
2023-11-13T05:53:08.308Z,15.02
2023-11-13T05:58:12.332Z,14.94
2023-11-13T06:03:20.572Z,14.93
2023-11-13T06:08:25.180Z,14.96
2023-11-13T06:13:28.813Z,14.98
2023-11-13T06:18:34.450Z,14.93
2023-11-13T06:23:39.088Z,14.95
2023-11-13T06:28:43.542Z,14.94
2023-11-13T06:33:47.871Z,14.94
2023-11-13T06:38:51.672Z,14.97
2023-11-13T06:43:55.272Z,14.97
2023-11-13T06:48:58.926Z,14.94
2023-11-13T06:54:05.420Z,14.93
2023-11-13T06:59:08.807Z,14.95
2023-11-13T07:04:14.623Z,14.95
2023-11-13T07:09:20.431Z,14.93
2023-11-13T07:14:23.846Z,14.93
2023-11-13T07:19:26.916Z,14.95
2023-11-13T07:24:32.595Z,14.96
2023-11-13T07:29:35.769Z,14.96
2023-11-13T07:34:38.923Z,15.01
2023-11-13T07:39:42.446Z,15.02
2023-11-13T07:44:51.524Z,15.04
2023-11-13T07:49:59.403Z,15.04
2023-11-13T07:55:03.353Z,15.07
2023-11-13T08:00:23.609Z,15.14
2023-11-13T08:05:27.882Z,15.15
2023-11-13T08:10:36.800Z,15.16
2023-11-13T08:15:40.243Z,15.21
2023-11-13T08:20:45.456Z,15.26
2023-11-13T08:25:52.369Z,15.25
2023-11-13T08:31:02.385Z,15.26
2023-11-13T08:36:13.731Z,15.31
2023-11-13T08:41:16.696Z,15.33
2023-11-13T08:46:20.212Z,15.32
2023-11-13T08:51:29.354Z,15.38
2023-11-13T08:56:33.015Z,15.47
2023-11-13T09:01:43.068Z,15.49
2023-11-13T09:06:46.926Z,15.59
2023-11-13T09:11:50.140Z,15.68
2023-11-13T09:16:58.232Z,15.81
2023-11-13T09:22:06.288Z,16.06
2023-11-13T09:27:11.414Z,16.22
2023-11-13T09:32:22.366Z,16.39
2023-11-13T09:37:28.441Z,16.41
2023-11-13T09:42:36.642Z,16.38
2023-11-13T09:47:47.334Z,16.38
2023-11-13T09:52:53.975Z,16.42
2023-11-13T09:57:58.131Z,16.45
2023-11-13T10:03:04.697Z,16.41
2023-11-13T10:08:10.066Z,16.40
2023-11-13T10:13:14.825Z,16.37
2023-11-13T10:18:28.831Z,16.37
2023-11-13T10:23:39.419Z,16.37
2023-11-13T10:28:47.510Z,16.47
2023-11-13T10:34:02.066Z,16.54
2023-11-13T10:39:19.281Z,16.66
2023-11-13T10:44:30.387Z,16.80
2023-11-13T10:49:48.770Z,16.87
2023-11-13T10:54:55.335Z,17.09
2023-11-13T11:00:08.034Z,17.22
2023-11-13T11:05:27.052Z,17.17
2023-11-13T11:10:34.995Z,17.29
2023-11-13T11:16:11.544Z,17.45
2023-11-13T11:21:37.177Z,17.58
2023-11-13T11:26:54.899Z,17.52
2023-11-13T11:32:04.144Z,17.52
2023-11-13T11:37:18.316Z,17.56
2023-11-13T11:42:30.083Z,17.60
2023-11-13T11:47:38.090Z,17.51
2023-11-13T11:52:54.571Z,17.44
2023-11-13T11:57:59.017Z,17.52
2023-11-13T12:03:09.859Z,17.68
2023-11-13T12:08:18.530Z,17.79
2023-11-13T12:13:28.897Z,17.90
2023-11-13T12:18:33.876Z,17.98
2023-11-13T12:23:38.574Z,17.98
2023-11-13T12:28:43.304Z,18.02
2023-11-13T12:33:47.051Z,18.05
2023-11-13T12:38:49.833Z,18.04
2023-11-13T12:43:55.521Z,18.18
2023-11-13T12:48:59.952Z,18.16
2023-11-13T12:54:06.034Z,18.21
2023-11-13T12:59:10.238Z,18.34
2023-11-13T13:04:18.494Z,18.28
2023-11-13T13:09:28.349Z,18.26
2023-11-13T13:14:32.546Z,18.35
2023-11-13T13:19:39.819Z,18.51
2023-11-13T13:24:43.884Z,18.39
2023-11-13T13:29:50.488Z,18.42
2023-11-13T13:34:55.366Z,18.65
2023-11-13T13:39:58.890Z,18.45
2023-11-13T13:45:05.740Z,18.42
2023-11-13T13:50:18.809Z,18.30
2023-11-13T13:55:29.903Z,18.14
2023-11-13T14:00:37.884Z,18.21
2023-11-13T14:05:47.869Z,18.27
2023-11-13T14:10:55.855Z,18.34
2023-11-13T14:16:07.028Z,18.35
2023-11-13T14:21:14.926Z,18.33
2023-11-13T14:26:18.825Z,18.37
2023-11-13T14:31:23.421Z,18.39
2023-11-13T14:36:30.487Z,18.23
2023-11-13T14:41:42.149Z,18.11
2023-11-13T14:46:48.628Z,18.03
2023-11-13T14:51:54.039Z,17.96
2023-11-13T14:56:59.512Z,18.00
2023-11-13T15:02:02.470Z,18.00
2023-11-13T15:07:09.586Z,17.98
2023-11-13T15:12:14.000Z,17.95
2023-11-13T15:17:22.156Z,17.98
2023-11-13T15:22:31.489Z,18.09
2023-11-13T15:27:39.638Z,18.09
2023-11-13T15:32:47.114Z,18.09
2023-11-13T15:37:52.185Z,18.06
2023-11-13T15:43:00.487Z,18.06
2023-11-13T15:48:06.603Z,18.00
2023-11-13T15:53:10.560Z,17.98
2023-11-13T15:58:16.292Z,18.03
2023-11-13T16:03:22.630Z,17.96
2023-11-13T16:08:34.724Z,17.89
2023-11-13T16:13:44.758Z,17.79
2023-11-13T16:18:50.321Z,17.65
2023-11-13T16:23:54.280Z,17.60
2023-11-13T16:28:59.081Z,17.39
2023-11-13T16:34:05.456Z,17.24
2023-11-13T16:39:12.471Z,17.11
2023-11-13T16:44:18.656Z,17.13
2023-11-13T16:49:25.958Z,17.11
2023-11-13T16:54:31.304Z,17.11
2023-11-13T16:59:35.398Z,17.07
2023-11-13T17:04:39.865Z,16.89
2023-11-13T17:09:44.201Z,16.89
2023-11-13T17:14:47.667Z,16.77
2023-11-13T17:19:52.228Z,16.65
2023-11-13T17:24:57.960Z,16.51
2023-11-13T17:30:08.860Z,16.39
2023-11-13T17:35:14.484Z,16.26
2023-11-13T17:40:24.188Z,16.13
2023-11-13T17:45:28.753Z,16.02
2023-11-13T17:50:33.296Z,15.77
2023-11-13T17:55:39.745Z,15.68
2023-11-13T18:00:48.902Z,15.68
2023-11-13T18:05:55.806Z,15.65
2023-11-13T18:11:04.633Z,15.56
2023-11-13T18:16:10.418Z,15.51
2023-11-13T18:21:14.652Z,15.41
2023-11-13T18:26:19.797Z,15.35
2023-11-13T18:31:24.821Z,15.25
2023-11-13T18:36:36.458Z,15.14
2023-11-13T18:41:41.421Z,15.17
2023-11-13T18:46:46.400Z,15.00
2023-11-13T18:51:49.272Z,14.98
2023-11-13T18:56:52.175Z,14.89
2023-11-13T19:01:56.456Z,14.85
2023-11-13T19:07:00.538Z,14.82
2023-11-13T19:12:05.860Z,14.75
2023-11-13T19:17:09.889Z,14.67
2023-11-13T19:22:12.984Z,14.65
2023-11-13T19:27:21.321Z,14.64
2023-11-13T19:32:25.241Z,14.61
2023-11-13T19:37:28.572Z,14.55
2023-11-13T19:42:34.887Z,14.47
2023-11-13T19:47:39.160Z,14.36
2023-11-13T19:52:47.870Z,14.27
2023-11-13T19:57:52.689Z,14.18
2023-11-13T20:03:02.577Z,14.13
2023-11-13T20:08:10.198Z,14.11
2023-11-13T20:13:16.619Z,14.09
2023-11-13T20:18:29.767Z,13.97
2023-11-13T20:23:41.779Z,13.90
2023-11-13T20:28:47.508Z,13.91
2023-11-13T20:33:50.255Z,13.95
2023-11-13T20:38:54.638Z,13.99
2023-11-13T20:44:01.500Z,13.77
2023-11-13T20:49:04.638Z,13.83
2023-11-13T20:54:08.646Z,13.84
2023-11-13T20:59:18.551Z,13.84
2023-11-13T21:04:24.588Z,13.78
2023-11-13T21:09:32.506Z,13.68
2023-11-13T21:14:37.290Z,13.68
2023-11-13T21:19:45.548Z,13.61
2023-11-13T21:24:53.637Z,13.60
2023-11-13T21:30:03.943Z,13.45
2023-11-13T21:35:11.422Z,13.43
2023-11-13T21:40:16.545Z,13.38
2023-11-13T21:45:19.891Z,13.30
2023-11-13T21:50:28.282Z,13.30
2023-11-13T21:55:38.018Z,13.28
2023-11-13T22:00:43.896Z,13.26
2023-11-13T22:05:48.760Z,13.20
2023-11-13T22:10:54.003Z,13.20
2023-11-13T22:15:59.601Z,13.16
2023-11-13T22:21:03.960Z,13.17
2023-11-13T22:26:09.072Z,13.19
2023-11-13T22:31:11.918Z,13.17
2023-11-13T22:36:14.577Z,13.13
2023-11-13T22:41:20.126Z,13.11
2023-11-13T22:46:23.240Z,13.10
2023-11-13T22:51:29.522Z,13.07
2023-11-13T22:56:32.997Z,13.03
2023-11-13T23:01:37.142Z,12.85
2023-11-13T23:06:45.374Z,12.85
2023-11-13T23:11:54.647Z,12.80
2023-11-13T23:17:01.504Z,12.71
2023-11-13T23:22:08.442Z,12.61
2023-11-13T23:27:12.335Z,12.61
2023-11-13T23:32:20.315Z,12.57
2023-11-13T23:37:26.300Z,12.52
2023-11-13T23:42:32.125Z,12.37
2023-11-13T23:47:37.898Z,12.42
2023-11-13T23:52:44.823Z,12.39
2023-11-13T23:57:47.920Z,12.31
